Time,TemperatureF,DewpointF,PressureIn,WindDirection,WindDirectionDegrees,WindSpeedMPH,WindSpeedGustMPH,Humidity,HourlyPrecipIn,Conditions,Clouds,dailyrainin,SoftwareType,DateUTC
2015-02-27 00:00:00,-999.9,-99.9,-100.00,SE,138,14.0,24.0,92,0.00,,,-99.99,Weather View 32 v60,2015-02-26 23:00:00,
2015-02-27 00:05:00,-999.9,-99.9,-100.00,SE,144,12.0,24.0,92,0.00,,,-99.99,Weather View 32 v60,2015-02-26 23:05:00,
2015-02-27 00:10:00,-999.9,-99.9,-100.00,SSE,151,14.0,24.0,92,0.00,,,-99.99,Weather View 32 v60,2015-02-26 23:10:00,
2015-02-27 00:15:00,-999.9,-99.9,-100.00,SE,138,8.0,24.0,92,0.00,,,-99.99,Weather View 32 v60,2015-02-26 23:15:00,
2015-02-27 00:20:00,-999.9,-99.9,-100.00,SE,135,18.0,24.0,93,0.00,,,-99.99,Weather View 32 v60,2015-02-26 23:20:00,
2015-02-27 00:25:00,-999.9,-99.9,-100.00,SSE,153,7.0,24.0,93,0.00,,,-99.99,Weather View 32 v60,2015-02-26 23:25:00,
2015-02-27 00:30:00,-999.9,-99.9,-100.00,SE,140,13.0,24.0,93,0.00,,,-99.99,Weather View 32 v60,2015-02-26 23:30:00,
2015-02-27 00:35:00,-999.9,-99.9,-100.00,SSE,159,7.0,24.0,92,0.00,,,-99.99,Weather View 32 v60,2015-02-26 23:35:00,
2015-02-27 00:40:00,-999.9,-99.9,-100.00,SE,146,5.0,24.0,93,0.00,,,-99.99,Weather View 32 v60,2015-02-26 23:40:00,
2015-02-27 00:45:00,-999.9,-99.9,-100.00,SE,138,12.0,24.0,92,0.00,,,-99.99,Weather View 32 v60,2015-02-26 23:45:00,
2015-02-27 00:51:00,-999.9,-99.9,-100.00,South,179,2.0,6.0,86,0.00,,,-99.99,Weather View 32 v60,2015-02-26 23:51:00,
2015-02-27 00:56:00,-999.9,-99.9,-100.00,South,178,3.0,6.0,86,0.00,,,-99.99,Weather View 32 v60,2015-02-26 23:56:00,
2015-02-27 01:01:00,-999.9,-99.9,-100.00,South,178,3.0,6.0,86,0.00,,,-99.99,Weather View 32 v60,2015-02-27 00:01:00,
2015-02-27 01:07:00,-999.9,-99.9,-100.00,SSW,194,2.0,6.0,86,0.00,,,-99.99,Weather View 32 v60,2015-02-27 00:07:00,
2015-02-27 01:15:00,-999.9,-99.9,-100.00,South,173,6.0,22.0,93,0.00,,,-99.99,Weather View 32 v60,2015-02-27 00:15:00,
2015-02-27 01:22:00,-999.9,-99.9,-100.00,South,180,2.0,6.0,86,0.00,,,-99.99,Weather View 32 v60,2015-02-27 00:22:00,
2015-02-27 01:30:00,-999.9,-99.9,-100.00,SE,135,13.0,20.0,92,0.00,,,-99.99,Weather View 32 v60,2015-02-27 00:30:00,
2015-02-27 01:35:00,-999.9,-99.9,-100.00,SSE,152,9.0,20.0,92,0.00,,,-99.99,Weather View 32 v60,2015-02-27 00:35:00,
2015-02-27 01:41:00,-999.9,-99.9,-100.00,SSW,196,1.0,5.0,86,0.00,,,-99.99,Weather View 32 v60,2015-02-27 00:41:00,
2015-02-27 01:46:00,-999.9,-99.9,-100.00,South,191,0.0,5.0,86,0.00,,,-99.99,Weather View 32 v60,2015-02-27 00:46:00,
2015-02-27 01:51:00,-999.9,-99.9,-100.00,SSW,197,0.0,5.0,86,0.00,,,-99.99,Weather View 32 v60,2015-02-27 00:51:00,
2015-02-27 02:00:00,-999.9,-99.9,-100.00,South,184,5.0,20.0,92,0.00,,,-99.99,Weather View 32 v60,2015-02-27 01:00:00,
2015-02-27 02:05:00,-999.9,-99.9,-100.00,SE,141,6.0,20.0,92,0.00,,,-99.99,Weather View 32 v60,2015-02-27 01:05:00,
2015-02-27 02:10:00,-999.9,-99.9,-100.00,SSE,165,6.0,20.0,92,0.00,,,-99.99,Weather View 32 v60,2015-02-27 01:10:00,
2015-02-27 02:17:00,-999.9,-99.9,-100.00,South,189,0.0,4.0,86,0.00,,,-99.99,Weather View 32 v60,2015-02-27 01:17:00,
2015-02-27 02:22:00,-999.9,-99.9,-100.00,South,191,0.0,4.0,86,0.00,,,-99.99,Weather View 32 v60,2015-02-27 01:22:00,
2015-02-27 02:30:00,-999.9,-99.9,-100.00,SSE,156,6.0,20.0,93,0.00,,,-99.99,Weather View 32 v60,2015-02-27 01:30:00,
2015-02-27 02:35:00,-999.9,-99.9,-100.00,SE,142,6.0,20.0,92,0.00,,,-99.99,Weather View 32 v60,2015-02-27 01:35:00,
2015-02-27 02:41:00,-999.9,-99.9,-100.00,SSW,193,0.0,3.0,86,0.00,,,-99.99,Weather View 32 v60,2015-02-27 01:41:00,
2015-02-27 02:46:00,-999.9,-99.9,-100.00,SSW,196,0.0,0.0,86,0.00,,,-99.99,Weather View 32 v60,2015-02-27 01:46:00,
2015-02-27 02:51:00,-999.9,-99.9,-100.00,SSW,193,0.0,0.0,86,0.00,,,-99.99,Weather View 32 v60,2015-02-27 01:51:00,
2015-02-27 02:56:00,-999.9,-99.9,-100.00,SSW,196,0.0,0.0,86,0.00,,,-99.99,Weather View 32 v60,2015-02-27 01:56:00,
2015-02-27 03:05:00,-999.9,-99.9,-100.00,SE,146,3.0,14.0,92,0.00,,,-99.99,Weather View 32 v60,2015-02-27 02:05:00,
2015-02-27 03:10:00,-999.9,-99.9,-100.00,South,185,4.0,14.0,93,0.00,,,-99.99,Weather View 32 v60,2015-02-27 02:10:00,
2015-02-27 03:15:00,-999.9,-99.9,-100.00,SSE,158,5.0,14.0,93,0.00,,,-99.99,Weather View 32 v60,2015-02-27 02:15:00,
2015-02-27 03:21:00,-999.9,-99.9,-100.00,SSW,196,0.0,0.0,86,0.00,,,-99.99,Weather View 32 v60,2015-02-27 02:21:00,
2015-02-27 03:26:00,-999.9,-99.9,-100.00,SSW,198,0.0,0.0,86,0.00,,,-99.99,Weather View 32 v60,2015-02-27 02:26:00,
2015-02-27 03:31:00,-999.9,-99.9,-100.00,SSW,199,0.0,0.0,86,0.00,,,-99.99,Weather View 32 v60,2015-02-27 02:31:00,
2015-02-27 03:40:00,-999.9,-99.9,-100.00,SSE,152,8.0,14.0,93,0.00,,,-99.99,Weather View 32 v60,2015-02-27 02:40:00,
2015-02-27 03:45:00,-999.9,-99.9,-100.00,SSE,161,3.0,14.0,93,0.00,,,-99.99,Weather View 32 v60,2015-02-27 02:45:00,
2015-02-27 03:50:00,-999.9,-99.9,-100.00,SSE,153,7.0,11.0,92,0.00,,,-99.99,Weather View 32 v60,2015-02-27 02:50:00,
2015-02-27 03:55:00,-999.9,-99.9,-100.00,SSE,151,6.0,11.0,93,0.00,,,-99.99,Weather View 32 v60,2015-02-27 02:55:00,
2015-02-27 04:00:00,-999.9,-99.9,-100.00,SSE,155,5.0,11.0,93,0.00,,,-99.99,Weather View 32 v60,2015-02-27 03:00:00,
2015-02-27 04:05:00,-999.9,-99.9,-100.00,South,187,4.0,11.0,92,0.00,,,-99.99,Weather View 32 v60,2015-02-27 03:05:00,
2015-02-27 04:10:00,-999.9,-99.9,-100.00,South,173,1.0,11.0,93,0.00,,,-99.99,Weather View 32 v60,2015-02-27 03:10:00,
2015-02-27 04:15:00,-999.9,-99.9,-100.00,South,180,2.0,11.0,93,0.00,,,-99.99,Weather View 32 v60,2015-02-27 03:15:00,
2015-02-27 04:20:00,-999.9,-99.9,-100.00,South,183,3.0,11.0,92,0.00,,,-99.99,Weather View 32 v60,2015-02-27 03:20:00,
2015-02-27 04:25:00,-999.9,-99.9,-100.00,SSW,202,2.0,11.0,92,0.00,,,-99.99,Weather View 32 v60,2015-02-27 03:25:00,
2015-02-27 04:32:00,-999.9,-99.9,-100.00,SSW,200,0.0,0.0,86,0.00,,,-99.99,Weather View 32 v60,2015-02-27 03:32:00,
2015-02-27 04:37:00,-999.9,-99.9,-100.00,SSE,150,6.0,9.0,93,0.00,,,-99.99,Weather View 32 v60,2015-02-27 03:37:00,
2015-02-27 04:45:00,-999.9,-99.9,-100.00,South,174,2.0,9.0,93,0.00,,,-99.99,Weather View 32 v60,2015-02-27 03:45:00,
2015-02-27 04:51:00,-999.9,-99.9,-100.00,SSW,205,0.0,0.0,86,0.00,,,-99.99,Weather View 32 v60,2015-02-27 03:51:00,
2015-02-27 05:00:00,-999.9,-99.9,-100.00,South,178,1.0,8.0,92,0.00,,,-99.99,Weather View 32 v60,2015-02-27 04:00:00,
2015-02-27 05:05:00,-999.9,-99.9,-100.00,South,176,4.0,8.0,92,0.00,,,-99.99,Weather View 32 v60,2015-02-27 04:05:00,
2015-02-27 05:10:00,-999.9,-99.9,-100.00,SSE,160,4.0,8.0,92,0.00,,,-99.99,Weather View 32 v60,2015-02-27 04:10:00,
2015-02-27 05:15:00,-999.9,-99.9,-100.00,South,169,2.0,8.0,92,0.00,,,-99.99,Weather View 32 v60,2015-02-27 04:15:00,
2015-02-27 05:20:00,-999.9,-99.9,-100.00,SSE,166,3.0,8.0,92,0.00,,,-99.99,Weather View 32 v60,2015-02-27 04:20:00,
2015-02-27 05:25:00,-999.9,-99.9,-100.00,South,183,3.0,8.0,92,0.00,,,-99.99,Weather View 32 v60,2015-02-27 04:25:00,
2015-02-27 05:30:00,-999.9,-99.9,-100.00,South,180,2.0,8.0,92,0.00,,,-99.99,Weather View 32 v60,2015-02-27 04:30:00,
2015-02-27 05:35:00,-999.9,-99.9,-100.00,South,187,3.0,8.0,92,0.00,,,-99.99,Weather View 32 v60,2015-02-27 04:35:00,
2015-02-27 05:41:00,-999.9,-99.9,-100.00,SSW,198,0.0,0.0,85,0.00,,,-99.99,Weather View 32 v60,2015-02-27 04:41:00,
2015-02-27 05:47:00,-999.9,-99.9,-100.00,SSW,201,0.0,0.0,86,0.00,,,-99.99,Weather View 32 v60,2015-02-27 04:47:00,
2015-02-27 05:55:00,-999.9,-99.9,-100.00,SSE,165,4.0,8.0,92,0.00,,,-99.99,Weather View 32 v60,2015-02-27 04:55:00,
2015-02-27 06:00:00,-999.9,-99.9,-100.00,South,182,0.0,8.0,92,0.00,,,-99.99,Weather View 32 v60,2015-02-27 05:00:00,
2015-02-27 06:06:00,-999.9,-99.9,-100.00,SSW,201,0.0,0.0,86,0.00,,,-99.99,Weather View 32 v60,2015-02-27 05:06:00,
2015-02-27 06:11:00,-999.9,-99.9,-100.00,SSW,200,0.0,0.0,85,0.00,,,-99.99,Weather View 32 v60,2015-02-27 05:11:00,
2015-02-27 06:16:00,-999.9,-99.9,-100.00,SSW,200,0.0,0.0,86,0.00,,,-99.99,Weather View 32 v60,2015-02-27 05:16:00,
2015-02-27 06:21:00,-999.9,-99.9,-100.00,SSW,199,0.0,0.0,86,0.00,,,-99.99,Weather View 32 v60,2015-02-27 05:21:00,
2015-02-27 06:26:00,-999.9,-99.9,-100.00,SSW,200,0.0,0.0,85,0.00,,,-99.99,Weather View 32 v60,2015-02-27 05:26:00,
2015-02-27 06:32:00,-999.9,-99.9,-100.00,SSW,200,0.0,0.0,85,0.00,,,-99.99,Weather View 32 v60,2015-02-27 05:32:00,
2015-02-27 06:37:00,-999.9,-99.9,-100.00,SSW,199,0.0,0.0,85,0.00,,,-99.99,Weather View 32 v60,2015-02-27 05:37:00,
2015-02-27 06:45:00,-999.9,-99.9,-100.00,SSE,164,0.0,8.0,92,0.00,,,-99.99,Weather View 32 v60,2015-02-27 05:45:00,
2015-02-27 06:50:00,-999.9,-99.9,-100.00,SSE,163,0.0,8.0,92,0.00,,,-99.99,Weather View 32 v60,2015-02-27 05:50:00,
2015-02-27 06:57:00,-999.9,-99.9,-100.00,SSW,199,0.0,0.0,85,0.00,,,-99.99,Weather View 32 v60,2015-02-27 05:57:00,
2015-02-27 07:02:00,-999.9,-99.9,-100.00,SSW,200,0.0,0.0,85,0.00,,,-99.99,Weather View 32 v60,2015-02-27 06:02:00,
2015-02-27 07:07:00,-999.9,-99.9,-100.00,SSW,199,0.0,0.0,85,0.00,,,-99.99,Weather View 32 v60,2015-02-27 06:07:00,
2015-02-27 07:15:00,-999.9,-99.9,-100.00,SSE,162,0.0,5.0,92,0.00,,,-99.99,Weather View 32 v60,2015-02-27 06:15:00,
2015-02-27 07:20:00,-999.9,-99.9,-100.00,SSE,162,0.0,5.0,92,0.00,,,-99.99,Weather View 32 v60,2015-02-27 06:20:00,
2015-02-27 07:25:00,-999.9,-99.9,-100.00,South,174,3.0,5.0,92,0.00,,,-99.99,Weather View 32 v60,2015-02-27 06:25:00,
2015-02-27 07:30:00,-999.9,-99.9,-100.00,South,174,0.0,5.0,92,0.00,,,-99.99,Weather View 32 v60,2015-02-27 06:30:00,
2015-02-27 07:37:00,-999.9,-99.9,-100.00,SSW,199,0.0,0.0,85,0.00,,,-99.99,Weather View 32 v60,2015-02-27 06:37:00,
2015-02-27 07:42:00,-999.9,-99.9,-100.00,SSW,199,0.0,0.0,85,0.00,,,-99.99,Weather View 32 v60,2015-02-27 06:42:00,
2015-02-27 07:47:00,-999.9,-99.9,-100.00,SSW,199,0.0,0.0,84,0.00,,,-99.99,Weather View 32 v60,2015-02-27 06:47:00,
2015-02-27 07:52:00,-999.9,-99.9,-100.00,SSW,200,0.0,0.0,84,0.00,,,-99.99,Weather View 32 v60,2015-02-27 06:52:00,
2015-02-27 07:56:00,-999.9,-99.9,-100.00,SSW,200,0.0,0.0,84,0.00,,,-99.99,Weather View 32 v60,2015-02-27 06:56:00,
2015-02-27 08:01:00,-999.9,-99.9,-100.00,SSW,200,0.0,0.0,84,0.00,,,-99.99,Weather View 32 v60,2015-02-27 07:01:00,
2015-02-27 08:06:00,-999.9,-99.9,-100.00,SSW,199,0.0,0.0,84,0.00,,,-99.99,Weather View 32 v60,2015-02-27 07:06:00,
2015-02-27 08:11:00,-999.9,-99.9,-100.00,SSW,200,0.0,0.0,84,0.00,,,-99.99,Weather View 32 v60,2015-02-27 07:11:00,
2015-02-27 08:16:00,-999.9,-99.9,-100.00,SSW,199,0.0,0.0,84,0.00,,,-99.99,Weather View 32 v60,2015-02-27 07:16:00,
2015-02-27 08:21:00,-999.9,-99.9,-100.00,SSW,199,0.0,0.0,84,0.00,,,-99.99,Weather View 32 v60,2015-02-27 07:21:00,
2015-02-27 08:26:00,-999.9,-99.9,-100.00,SSW,200,0.0,0.0,84,0.00,,,-99.99,Weather View 32 v60,2015-02-27 07:26:00,
2015-02-27 08:32:00,-999.9,-99.9,-100.00,SSW,199,0.0,0.0,84,0.00,,,-99.99,Weather View 32 v60,2015-02-27 07:32:00,
2015-02-27 08:39:00,-999.9,-99.9,-100.00,South,186,0.0,4.0,92,0.00,,,-99.99,Weather View 32 v60,2015-02-27 07:39:00,
2015-02-27 08:45:00,-999.9,-99.9,-100.00,South,186,0.0,4.0,92,0.00,,,-99.99,Weather View 32 v60,2015-02-27 07:45:00,
2015-02-27 08:50:00,-999.9,-99.9,-100.00,South,186,0.0,4.0,92,0.00,,,-99.99,Weather View 32 v60,2015-02-27 07:50:00,
2015-02-27 08:55:00,-999.9,-99.9,-100.00,South,186,0.0,4.0,92,0.00,,,-99.99,Weather View 32 v60,2015-02-27 07:55:00,
2015-02-27 09:00:00,-999.9,-99.9,-100.00,South,186,0.0,4.0,92,0.00,,,-99.99,Weather View 32 v60,2015-02-27 08:00:00,
2015-02-27 09:07:00,-999.9,-99.9,-100.00,SSW,199,0.0,0.0,84,0.00,,,-99.99,Weather View 32 v60,2015-02-27 08:07:00,
2015-02-27 09:12:00,-999.9,-99.9,-100.00,SSW,200,0.0,0.0,84,0.00,,,-99.99,Weather View 32 v60,2015-02-27 08:12:00,
2015-02-27 09:16:00,-999.9,-99.9,-100.00,SSW,199,0.0,0.0,84,0.00,,,-99.99,Weather View 32 v60,2015-02-27 08:16:00,
2015-02-27 09:21:00,-999.9,-99.9,-100.00,SSW,199,0.0,0.0,85,0.00,,,-99.99,Weather View 32 v60,2015-02-27 08:21:00,
2015-02-27 09:26:00,-999.9,-99.9,-100.00,SSW,200,0.0,0.0,84,0.00,,,-99.99,Weather View 32 v60,2015-02-27 08:26:00,